createdAt,value
2022-08-23T00:00:13.494Z,17.70
2022-08-23T00:02:43.768Z,17.70
2022-08-23T00:05:13.166Z,17.70
2022-08-23T00:07:44.077Z,17.70
2022-08-23T00:10:15.642Z,17.60
2022-08-23T00:12:44.588Z,17.60
2022-08-23T00:15:15.879Z,17.70
2022-08-23T00:17:45.600Z,17.70
2022-08-23T00:20:17.435Z,17.60
2022-08-23T00:22:45.612Z,17.60
2022-08-23T00:25:15.613Z,17.50
2022-08-23T00:27:44.124Z,17.50
2022-08-23T00:30:14.241Z,17.40
2022-08-23T00:32:44.049Z,17.30
2022-08-23T00:35:26.473Z,17.30
2022-08-23T00:38:32.309Z,17.30
2022-08-23T00:40:47.684Z,17.20
2022-08-23T00:43:36.386Z,17.20
2022-08-23T00:46:28.313Z,17.10
2022-08-23T00:48:57.239Z,17.10
2022-08-23T00:51:31.748Z,17.10
2022-08-23T00:54:12.580Z,17.10
2022-08-23T00:56:41.113Z,17.00
2022-08-23T00:59:09.464Z,16.90
2022-08-23T01:01:37.764Z,16.90
2022-08-23T01:04:06.222Z,16.80
2022-08-23T01:06:44.094Z,16.70
2022-08-23T01:09:16.077Z,16.70
2022-08-23T01:11:51.031Z,16.60
2022-08-23T01:14:23.499Z,16.50
2022-08-23T01:16:56.283Z,16.40
2022-08-23T01:19:40.883Z,16.40
2022-08-23T01:22:17.228Z,16.30
2022-08-23T01:25:07.132Z,16.30
2022-08-23T01:27:37.165Z,16.30
2022-08-23T01:30:07.412Z,16.20
2022-08-23T01:32:39.760Z,16.10
2022-08-23T01:35:08.537Z,16.10
2022-08-23T01:37:37.254Z,16.10
2022-08-23T01:40:07.951Z,16.10
2022-08-23T01:42:36.362Z,16.00
2022-08-23T01:45:05.471Z,16.00
2022-08-23T01:47:33.742Z,16.00
2022-08-23T01:50:02.277Z,16.00
2022-08-23T01:52:30.451Z,15.90
2022-08-23T01:54:59.295Z,15.90
2022-08-23T01:57:29.023Z,15.90
2022-08-23T01:59:57.668Z,15.80
2022-08-23T02:02:27.008Z,15.90
2022-08-23T02:04:55.260Z,15.80
2022-08-23T02:07:28.149Z,15.80
2022-08-23T02:09:57.337Z,15.80
2022-08-23T02:12:26.009Z,15.80
2022-08-23T02:14:55.502Z,15.70
2022-08-23T02:17:24.087Z,15.70
2022-08-23T02:19:52.659Z,15.60
2022-08-23T02:22:20.675Z,15.60
2022-08-23T02:24:49.267Z,15.50
2022-08-23T02:27:18.123Z,15.50
2022-08-23T02:29:47.425Z,15.50
2022-08-23T02:32:19.446Z,15.50
2022-08-23T02:34:59.797Z,15.50
2022-08-23T02:37:34.237Z,15.50
2022-08-23T02:40:02.571Z,15.40
2022-08-23T02:42:30.765Z,15.50
2022-08-23T02:44:59.271Z,15.40
2022-08-23T02:47:29.735Z,15.30
2022-08-23T02:49:58.306Z,15.30
2022-08-23T02:52:26.367Z,15.40
2022-08-23T02:54:58.331Z,15.30
2022-08-23T02:57:26.655Z,15.20
2022-08-23T02:59:55.773Z,15.20
2022-08-23T03:02:23.947Z,15.20
2022-08-23T03:04:53.601Z,15.20
2022-08-23T03:07:21.742Z,15.20
2022-08-23T03:09:49.846Z,15.10
2022-08-23T03:12:18.045Z,15.10
2022-08-23T03:14:46.386Z,15.00
2022-08-23T03:17:14.686Z,15.00
2022-08-23T03:19:42.959Z,14.90
2022-08-23T03:22:12.768Z,14.90
2022-08-23T03:24:40.947Z,14.90
2022-08-23T03:27:09.225Z,14.90
2022-08-23T03:29:37.712Z,14.80
2022-08-23T03:32:07.484Z,14.80
2022-08-23T03:34:35.811Z,14.80
2022-08-23T03:37:04.156Z,14.80
2022-08-23T03:39:33.732Z,14.80
2022-08-23T03:42:01.904Z,14.80
2022-08-23T03:44:30.266Z,14.70
2022-08-23T03:46:58.454Z,14.70
2022-08-23T03:49:26.738Z,14.70
2022-08-23T03:51:55.191Z,14.70
2022-08-23T03:54:23.419Z,14.70
2022-08-23T03:56:55.570Z,14.70
2022-08-23T03:59:23.965Z,14.70
2022-08-23T04:01:52.209Z,14.70
2022-08-23T04:04:20.488Z,14.60
2022-08-23T04:06:49.148Z,14.60
2022-08-23T04:09:18.185Z,14.60
2022-08-23T04:11:46.841Z,14.60
2022-08-23T04:14:16.849Z,14.60
2022-08-23T04:16:44.994Z,14.50
2022-08-23T04:19:15.158Z,14.50
2022-08-23T04:21:48.246Z,14.50
2022-08-23T04:24:16.939Z,14.50
2022-08-23T04:26:45.191Z,14.50
2022-08-23T04:29:24.828Z,14.40
2022-08-23T04:32:05.361Z,14.50
2022-08-23T04:34:36.286Z,14.50
2022-08-23T04:37:04.465Z,14.50
2022-08-23T04:39:58.839Z,14.40
2022-08-23T04:42:26.341Z,14.50
2022-08-23T04:44:55.982Z,14.40
2022-08-23T04:47:24.078Z,14.40
2022-08-23T04:49:52.142Z,14.50
2022-08-23T04:52:20.296Z,14.50
2022-08-23T04:54:48.694Z,14.50
2022-08-23T04:57:17.136Z,14.50
2022-08-23T04:59:45.195Z,14.60
2022-08-23T05:02:14.883Z,14.60
2022-08-23T05:04:43.167Z,14.70
2022-08-23T05:07:11.429Z,14.70
2022-08-23T05:09:39.640Z,14.80
2022-08-23T05:12:08.268Z,14.80
2022-08-23T05:14:36.577Z,14.80
2022-08-23T05:17:04.789Z,14.90
2022-08-23T05:19:34.261Z,14.90
2022-08-23T05:22:05.647Z,15.00
2022-08-23T05:24:36.226Z,15.10
2022-08-23T05:27:04.403Z,15.10
2022-08-23T05:29:32.580Z,15.30
2022-08-23T05:32:00.631Z,15.30
2022-08-23T05:34:29.055Z,15.40
2022-08-23T05:36:58.635Z,15.50
2022-08-23T05:39:32.859Z,15.60
2022-08-23T05:42:05.464Z,15.70
2022-08-23T05:44:36.363Z,15.80
2022-08-23T05:47:10.196Z,15.90
2022-08-23T05:49:39.488Z,16.00
2022-08-23T05:52:12.030Z,16.10
2022-08-23T05:54:40.470Z,16.20
2022-08-23T05:57:08.694Z,16.30
2022-08-23T05:59:36.743Z,16.40
2022-08-23T06:02:06.043Z,16.60
2022-08-23T06:04:34.163Z,16.80
2022-08-23T06:07:02.155Z,17.00
2022-08-23T06:09:31.759Z,17.10
2022-08-23T06:12:00.112Z,17.30
2022-08-23T06:14:28.801Z,17.40
2022-08-23T06:16:57.013Z,17.50
2022-08-23T06:19:25.685Z,17.60
2022-08-23T06:21:55.561Z,17.70
2022-08-23T06:24:23.953Z,17.80
2022-08-23T06:26:53.926Z,18.00
2022-08-23T06:29:22.360Z,18.00
2022-08-23T06:31:52.726Z,18.10
2022-08-23T06:34:23.059Z,18.10
2022-08-23T06:36:53.688Z,18.20
2022-08-23T06:39:23.720Z,18.20
2022-08-23T06:41:54.199Z,18.20
2022-08-23T06:44:22.536Z,18.20
2022-08-23T06:46:50.816Z,18.30
2022-08-23T06:49:18.812Z,18.40
2022-08-23T06:51:50.317Z,18.60
2022-08-23T06:54:26.581Z,18.70
2022-08-23T06:56:57.091Z,18.90
2022-08-23T06:59:25.738Z,19.00
2022-08-23T07:01:56.153Z,19.20
2022-08-23T07:04:28.575Z,19.30
2022-08-23T07:06:56.775Z,19.40
2022-08-23T07:09:25.710Z,19.60
2022-08-23T07:11:55.274Z,19.70
2022-08-23T07:14:24.447Z,19.80
2022-08-23T07:16:56.175Z,19.90
2022-08-23T07:19:29.080Z,20.10
2022-08-23T07:21:58.183Z,20.20
2022-08-23T07:24:32.124Z,20.30
2022-08-23T07:27:06.830Z,20.40
2022-08-23T07:29:36.332Z,20.50
2022-08-23T07:32:05.281Z,20.70
2022-08-23T07:34:34.384Z,20.80
2022-08-23T07:37:04.401Z,21.00
2022-08-23T07:39:40.840Z,21.10
2022-08-23T07:42:23.105Z,21.30
2022-08-23T07:44:53.541Z,21.40
2022-08-23T07:47:21.995Z,21.60
2022-08-23T07:49:51.106Z,21.70
2022-08-23T07:52:19.293Z,21.70
2022-08-23T07:54:48.539Z,21.70
2022-08-23T07:57:20.022Z,21.80
2022-08-23T07:59:48.967Z,21.90
2022-08-23T08:02:17.313Z,22.10
2022-08-23T08:04:45.396Z,22.20
2022-08-23T08:07:21.285Z,22.20
2022-08-23T08:09:49.733Z,22.40
2022-08-23T08:12:19.514Z,22.50
2022-08-23T08:14:48.785Z,22.60
2022-08-23T08:17:18.253Z,22.60
2022-08-23T08:19:47.006Z,22.70
2022-08-23T08:22:15.201Z,22.90
2022-08-23T08:24:43.585Z,23.00
2022-08-23T08:27:11.881Z,23.10
2022-08-23T08:29:42.039Z,23.10
2022-08-23T08:32:13.989Z,23.30
2022-08-23T08:34:43.113Z,23.50
2022-08-23T08:37:11.399Z,23.70
2022-08-23T08:39:45.456Z,23.80
2022-08-23T08:42:33.150Z,23.90
2022-08-23T08:45:07.381Z,24.00
2022-08-23T08:47:41.569Z,24.10
2022-08-23T08:50:16.494Z,24.20
2022-08-23T08:52:48.540Z,24.30
2022-08-23T08:55:21.759Z,24.50
2022-08-23T08:57:51.538Z,24.60
2022-08-23T09:00:24.543Z,24.60
2022-08-23T09:02:55.330Z,24.80
2022-08-23T09:05:26.892Z,24.80
2022-08-23T09:08:10.701Z,24.90
2022-08-23T09:10:51.797Z,24.90
2022-08-23T09:13:36.816Z,25.10
2022-08-23T09:16:16.658Z,25.10
2022-08-23T09:18:44.738Z,25.20
2022-08-23T09:21:13.177Z,25.40
2022-08-23T09:23:44.998Z,25.50
2022-08-23T09:26:22.062Z,25.60
2022-08-23T09:28:52.641Z,25.70
2022-08-23T09:31:41.548Z,25.70
2022-08-23T09:34:09.992Z,25.90
2022-08-23T09:36:39.503Z,25.90
2022-08-23T09:39:10.470Z,26.00
2022-08-23T09:41:43.643Z,26.10
2022-08-23T09:44:16.695Z,26.10
2022-08-23T09:46:46.749Z,26.20
2022-08-23T09:49:27.913Z,26.20
2022-08-23T09:51:59.734Z,26.30
2022-08-23T09:54:31.963Z,26.40
2022-08-23T09:57:03.506Z,26.40
2022-08-23T09:59:40.268Z,26.50
2022-08-23T10:02:18.471Z,26.60
2022-08-23T10:04:58.355Z,26.80
2022-08-23T10:07:31.271Z,26.90
2022-08-23T10:10:17.104Z,26.80
2022-08-23T10:12:45.284Z,26.90
2022-08-23T10:15:14.636Z,27.10
2022-08-23T10:17:51.044Z,27.10
2022-08-23T10:20:30.866Z,27.10
2022-08-23T10:23:10.298Z,27.20
2022-08-23T10:25:43.641Z,27.40
2022-08-23T10:28:39.753Z,27.50
2022-08-23T10:31:17.049Z,27.70
2022-08-23T10:33:54.969Z,27.80
2022-08-23T10:36:32.003Z,27.90
2022-08-23T10:39:03.524Z,27.80
2022-08-23T10:41:43.627Z,27.80
2022-08-23T10:44:27.427Z,27.90
2022-08-23T10:47:11.732Z,27.90
2022-08-23T10:49:42.724Z,27.90
2022-08-23T10:52:29.031Z,28.00
2022-08-23T10:55:06.469Z,28.10
2022-08-23T10:57:38.463Z,28.30
2022-08-23T11:00:09.821Z,28.40
2022-08-23T11:02:45.996Z,28.50
2022-08-23T11:05:25.555Z,28.50
2022-08-23T11:08:01.175Z,28.70
2022-08-23T11:10:34.941Z,28.70
2022-08-23T11:13:18.970Z,28.70
2022-08-23T11:15:56.408Z,28.60
2022-08-23T11:18:42.484Z,28.80
2022-08-23T11:21:44.769Z,28.80
2022-08-23T11:24:34.703Z,28.80
2022-08-23T11:27:06.888Z,28.90
2022-08-23T11:29:37.855Z,28.90
2022-08-23T11:32:28.006Z,28.90
2022-08-23T11:35:05.586Z,29.00
2022-08-23T11:37:51.987Z,28.90
2022-08-23T11:40:52.699Z,28.90
2022-08-23T11:43:26.856Z,28.90
2022-08-23T11:45:55.169Z,28.90
2022-08-23T11:48:43.549Z,28.90
2022-08-23T11:51:25.593Z,29.10
2022-08-23T11:54:27.403Z,29.30
2022-08-23T11:57:05.278Z,29.30
2022-08-23T11:59:52.259Z,29.30
2022-08-23T12:03:01.842Z,29.40
2022-08-23T12:05:57.098Z,29.60
2022-08-23T12:08:46.063Z,29.90
2022-08-23T12:11:17.875Z,29.90
2022-08-23T12:13:59.007Z,29.80
2022-08-23T12:16:49.613Z,29.80
2022-08-23T12:19:30.585Z,29.80
2022-08-23T12:21:59.457Z,29.90
2022-08-23T12:24:32.321Z,30.00
2022-08-23T12:27:09.740Z,30.20
2022-08-23T12:29:57.025Z,30.30
2022-08-23T12:32:36.315Z,30.40
2022-08-23T12:35:19.289Z,30.40
2022-08-23T12:37:51.862Z,30.50
2022-08-23T12:40:25.853Z,30.60
2022-08-23T12:43:06.955Z,30.50
2022-08-23T12:45:41.590Z,30.60
2022-08-23T12:48:13.779Z,30.60
2022-08-23T12:50:45.108Z,30.60
2022-08-23T12:53:16.231Z,30.60
2022-08-23T12:55:48.425Z,30.40
2022-08-23T12:58:31.127Z,30.30
2022-08-23T13:01:04.050Z,30.30
2022-08-23T13:03:36.257Z,30.50
2022-08-23T13:06:10.704Z,30.50
2022-08-23T13:08:43.300Z,30.80
2022-08-23T13:11:14.585Z,30.90
2022-08-23T13:13:45.630Z,30.90
2022-08-23T13:19:26.683Z,31.50
2022-08-23T13:22:15.456Z,31.50
2022-08-23T13:24:45.778Z,31.70
2022-08-23T13:27:21.895Z,31.70
2022-08-23T13:29:57.957Z,31.60
2022-08-23T13:32:38.957Z,31.50
2022-08-23T13:35:36.242Z,31.40
2022-08-23T13:38:20.552Z,31.40
2022-08-23T13:40:56.855Z,31.50
2022-08-23T13:43:31.126Z,31.50
2022-08-23T13:46:11.652Z,31.20
2022-08-23T13:48:47.269Z,31.10
2022-08-23T13:51:32.132Z,30.90
2022-08-23T13:54:05.761Z,30.60
2022-08-23T13:56:39.219Z,30.30
2022-08-23T13:59:20.102Z,30.30
2022-08-23T14:01:50.172Z,30.10
2022-08-23T14:04:18.529Z,30.10
2022-08-23T14:06:49.024Z,30.10
2022-08-23T14:09:17.921Z,30.20
2022-08-23T14:11:55.670Z,30.50
2022-08-23T14:14:24.488Z,30.90
2022-08-23T14:17:02.461Z,31.20
2022-08-23T14:22:23.042Z,31.20
2022-08-23T14:24:51.067Z,31.10
2022-08-23T14:27:19.388Z,30.80
2022-08-23T14:29:47.918Z,30.50
2022-08-23T14:32:17.686Z,30.30
2022-08-23T14:34:45.745Z,30.00
2022-08-23T14:38:01.966Z,29.90
2022-08-23T14:40:02.303Z,30.00
2022-08-23T14:42:31.716Z,30.00
2022-08-23T14:45:00.136Z,30.10
2022-08-23T14:47:30.131Z,30.10
2022-08-23T14:49:58.355Z,30.10
2022-08-23T14:52:26.589Z,30.10
2022-08-23T14:54:54.865Z,30.00
2022-08-23T14:57:23.185Z,30.10
2022-08-23T14:59:51.424Z,30.00
2022-08-23T15:02:25.194Z,29.90
2022-08-23T15:04:55.810Z,29.70
2022-08-23T15:07:24.446Z,29.60
2022-08-23T15:09:55.297Z,29.50
2022-08-23T15:15:15.102Z,29.10
2022-08-23T15:17:48.542Z,29.20
2022-08-23T15:20:18.483Z,29.20
2022-08-23T15:22:55.113Z,29.10
2022-08-23T15:25:24.971Z,29.10
2022-08-23T15:27:53.623Z,28.90
2022-08-23T15:30:23.437Z,28.80
2022-08-23T15:32:56.735Z,28.50
2022-08-23T15:35:27.883Z,28.30
2022-08-23T15:37:57.982Z,28.20
2022-08-23T15:40:27.101Z,28.10
2022-08-23T15:42:55.502Z,28.00
2022-08-23T15:45:24.041Z,28.10
2022-08-23T15:47:54.228Z,28.20
2022-08-23T15:50:24.764Z,28.50
2022-08-23T15:52:54.345Z,28.50
2022-08-23T15:55:24.913Z,28.30
2022-08-23T15:57:54.765Z,28.30
2022-08-23T16:00:24.208Z,28.20
2022-08-23T16:03:18.286Z,28.20
2022-08-23T16:05:44.329Z,28.20
2022-08-23T16:08:19.328Z,28.40
2022-08-23T16:10:47.578Z,28.70
2022-08-23T16:13:15.715Z,29.00
2022-08-23T16:15:43.778Z,29.30
2022-08-23T16:18:12.059Z,29.60
2022-08-23T16:20:40.312Z,29.80
2022-08-23T16:23:08.511Z,29.60
2022-08-23T16:25:38.249Z,29.50
2022-08-23T16:28:07.975Z,29.60
2022-08-23T16:30:36.368Z,29.50
2022-08-23T16:33:04.888Z,29.50
2022-08-23T16:35:32.997Z,29.50
2022-08-23T16:38:01.105Z,29.60
2022-08-23T16:40:29.329Z,29.50
2022-08-23T16:42:58.848Z,29.30
2022-08-23T16:45:27.022Z,29.20
2022-08-23T16:47:55.270Z,29.10
2022-08-23T16:50:23.542Z,29.10
2022-08-23T16:52:51.536Z,29.00
2022-08-23T16:55:19.796Z,28.90
2022-08-23T16:57:48.039Z,28.80
2022-08-23T17:00:18.697Z,28.60
2022-08-23T17:02:46.940Z,28.50
2022-08-23T17:05:19.382Z,28.30
2022-08-23T17:07:47.870Z,28.30
2022-08-23T17:10:18.064Z,28.10
2022-08-23T17:12:48.634Z,27.90
2022-08-23T17:15:22.080Z,27.80
2022-08-23T17:17:50.661Z,27.80
2022-08-23T17:20:20.453Z,27.70
2022-08-23T17:22:49.362Z,27.50
2022-08-23T17:25:17.933Z,27.40
2022-08-23T17:27:47.187Z,27.30
2022-08-23T17:30:18.304Z,27.20
2022-08-23T17:32:47.724Z,27.10
2022-08-23T17:35:17.947Z,27.10
2022-08-23T17:37:56.831Z,27.10
2022-08-23T17:40:31.250Z,27.10
2022-08-23T17:43:01.260Z,27.20
2022-08-23T17:45:42.359Z,27.10
2022-08-23T17:48:11.278Z,27.10
2022-08-23T17:50:41.611Z,26.90
2022-08-23T17:53:09.744Z,26.90
2022-08-23T17:55:39.261Z,26.80
2022-08-23T17:58:11.485Z,26.70
2022-08-23T18:00:41.441Z,26.50
2022-08-23T18:03:09.793Z,26.30
2022-08-23T18:05:41.134Z,26.20
2022-08-23T18:08:09.663Z,26.10
2022-08-23T18:10:38.253Z,25.80
2022-08-23T18:13:06.483Z,25.70
2022-08-23T18:15:34.806Z,25.50
2022-08-23T18:18:04.717Z,25.30
2022-08-23T18:20:32.912Z,25.10
2022-08-23T18:23:01.546Z,25.00
2022-08-23T18:25:30.659Z,24.80
2022-08-23T18:28:06.833Z,24.70
2022-08-23T18:30:36.161Z,24.60
2022-08-23T18:33:07.569Z,24.40
2022-08-23T18:35:41.418Z,24.30
2022-08-23T18:38:09.638Z,24.10
2022-08-23T18:40:45.293Z,24.00
2022-08-23T18:43:14.821Z,23.90
2022-08-23T18:45:42.943Z,23.70
2022-08-23T18:48:13.055Z,23.60
2022-08-23T18:50:41.256Z,23.50
2022-08-23T18:53:09.962Z,23.50
2022-08-23T18:55:38.296Z,23.30
2022-08-23T18:58:07.983Z,23.20
2022-08-23T19:00:36.824Z,23.10
2022-08-23T19:03:06.639Z,23.00
2022-08-23T19:05:41.726Z,22.90
2022-08-23T19:08:11.522Z,22.90
2022-08-23T19:10:40.739Z,22.80
2022-08-23T19:13:09.970Z,22.70
2022-08-23T19:15:42.174Z,22.60
2022-08-23T19:18:11.010Z,22.50
2022-08-23T19:20:40.611Z,22.50
2022-08-23T19:23:08.996Z,22.40
2022-08-23T19:25:38.604Z,22.30
2022-08-23T19:28:07.102Z,22.30
2022-08-23T19:30:35.732Z,22.20
2022-08-23T19:33:04.278Z,22.10
2022-08-23T19:35:32.807Z,22.00
2022-08-23T19:38:02.430Z,22.00
2022-08-23T19:40:30.797Z,21.90
2022-08-23T19:43:00.461Z,21.90
2022-08-23T19:45:31.970Z,21.80
2022-08-23T19:48:00.934Z,21.70
2022-08-23T19:50:29.514Z,21.70
2022-08-23T19:52:57.952Z,21.60
2022-08-23T19:55:29.155Z,21.50
2022-08-23T19:57:58.367Z,21.50
2022-08-23T20:00:27.916Z,21.40
2022-08-23T20:02:56.192Z,21.30
2022-08-23T20:05:24.405Z,21.30
2022-08-23T20:07:53.090Z,21.20
2022-08-23T20:10:21.705Z,21.20
2022-08-23T20:12:51.338Z,21.10
2022-08-23T20:15:19.655Z,21.00
2022-08-23T20:17:47.994Z,21.00
2022-08-23T20:20:16.248Z,20.90
2022-08-23T20:23:02.089Z,20.90
2022-08-23T20:25:30.750Z,20.90
2022-08-23T20:28:00.695Z,20.80
2022-08-23T20:30:28.802Z,20.80
2022-08-23T20:32:57.002Z,20.70
2022-08-23T20:35:25.421Z,20.60
2022-08-23T20:37:53.781Z,20.50
2022-08-23T20:40:23.212Z,20.50
2022-08-23T20:42:51.700Z,20.50
2022-08-23T20:45:21.642Z,20.40
2022-08-23T20:47:49.901Z,20.40
2022-08-23T20:50:18.219Z,20.30
2022-08-23T20:52:46.912Z,20.30
2022-08-23T20:55:15.425Z,20.20
2022-08-23T20:57:43.626Z,20.10
2022-08-23T21:00:13.210Z,20.10
2022-08-23T21:02:42.843Z,20.10
2022-08-23T21:05:11.207Z,20.10
2022-08-23T21:07:40.088Z,20.10
2022-08-23T21:10:10.467Z,20.10
2022-08-23T21:12:38.723Z,20.00
2022-08-23T21:15:10.924Z,20.00
2022-08-23T21:17:39.643Z,19.90
2022-08-23T21:20:10.098Z,19.90
2022-08-23T21:22:38.186Z,19.80
2022-08-23T21:25:07.238Z,19.70
2022-08-23T21:27:35.704Z,19.70
2022-08-23T21:30:04.128Z,19.70
2022-08-23T21:32:32.321Z,19.70
2022-08-23T21:35:00.989Z,19.60
2022-08-23T21:37:31.204Z,19.60
2022-08-23T21:39:59.431Z,19.50
2022-08-23T21:42:27.699Z,19.50
2022-08-23T21:44:55.990Z,19.40
2022-08-23T21:47:24.297Z,19.30
2022-08-23T21:49:53.165Z,19.30
2022-08-23T21:52:21.477Z,19.20
2022-08-23T21:54:51.050Z,19.20
2022-08-23T21:57:19.129Z,19.10
2022-08-23T21:59:47.415Z,19.10
2022-08-23T22:02:15.609Z,19.10
2022-08-23T22:04:44.133Z,19.10
2022-08-23T22:07:12.553Z,19.00
2022-08-23T22:09:41.186Z,19.00
2022-08-23T22:12:10.901Z,18.90
2022-08-23T22:14:39.639Z,18.90
2022-08-23T22:17:07.853Z,18.90
2022-08-23T22:19:35.984Z,18.90
2022-08-23T22:22:04.919Z,18.90
2022-08-23T22:24:33.191Z,18.80
2022-08-23T22:27:01.356Z,18.80
2022-08-23T22:29:30.878Z,18.80
2022-08-23T22:31:59.007Z,18.70
2022-08-23T22:34:27.438Z,18.70
2022-08-23T22:36:56.001Z,18.70
2022-08-23T22:39:25.131Z,18.70
2022-08-23T22:41:54.269Z,18.70
2022-08-23T22:44:22.528Z,18.60
2022-08-23T22:46:52.153Z,18.60
2022-08-23T22:49:20.323Z,18.70
2022-08-23T22:51:49.629Z,18.60
2022-08-23T22:54:24.669Z,18.60
2022-08-23T22:56:54.558Z,18.50
2022-08-23T22:59:27.738Z,18.50
2022-08-23T23:02:04.177Z,18.40
2022-08-23T23:04:33.665Z,18.40
2022-08-23T23:07:02.441Z,18.40
2022-08-23T23:09:30.694Z,18.40
2022-08-23T23:11:58.958Z,18.30
2022-08-23T23:14:27.257Z,18.30
2022-08-23T23:16:55.593Z,18.30
2022-08-23T23:19:42.960Z,18.20
2022-08-23T23:22:14.214Z,18.20
2022-08-23T23:24:42.309Z,18.20
2022-08-23T23:27:10.556Z,18.10
2022-08-23T23:29:38.967Z,18.00
2022-08-23T23:32:07.611Z,18.00
2022-08-23T23:34:38.024Z,18.00
2022-08-23T23:37:06.332Z,18.00
2022-08-23T23:39:34.642Z,18.00
2022-08-23T23:42:02.943Z,17.90
2022-08-23T23:44:32.042Z,17.90
2022-08-23T23:47:01.347Z,17.90
2022-08-23T23:49:32.661Z,17.90
2022-08-23T23:52:03.595Z,17.90
2022-08-23T23:54:31.894Z,17.90
2022-08-23T23:57:00.233Z,17.80
2022-08-23T23:59:28.695Z,17.80
